createdAt,value
2022-07-30T00:00:23.803Z,16.96
2022-07-30T00:02:53.129Z,16.92
2022-07-30T00:05:20.402Z,16.84
2022-07-30T00:07:47.496Z,16.76
2022-07-30T00:10:14.414Z,16.70
2022-07-30T00:12:41.590Z,16.67
2022-07-30T00:15:09.238Z,16.70
2022-07-30T00:17:36.075Z,16.68
2022-07-30T00:20:03.574Z,16.66
2022-07-30T00:22:31.125Z,16.70
2022-07-30T00:24:58.123Z,16.76
2022-07-30T00:27:25.386Z,16.77
2022-07-30T00:29:52.237Z,16.77
2022-07-30T00:32:19.192Z,16.78
2022-07-30T00:34:46.244Z,16.70
2022-07-30T00:37:13.167Z,16.63
2022-07-30T00:39:39.992Z,16.67
2022-07-30T00:42:06.889Z,16.68
2022-07-30T00:44:33.927Z,16.60
2022-07-30T00:47:00.975Z,16.57
2022-07-30T00:49:28.162Z,16.50
2022-07-30T00:51:55.584Z,16.45
2022-07-30T00:54:22.563Z,16.32
2022-07-30T00:56:49.996Z,16.42
2022-07-30T00:59:17.441Z,16.37
2022-07-30T01:01:44.259Z,16.37
2022-07-30T01:04:11.902Z,16.40
2022-07-30T01:06:40.237Z,16.35
2022-07-30T01:09:07.764Z,16.23
2022-07-30T01:11:38.205Z,16.14
2022-07-30T01:14:06.836Z,16.11
2022-07-30T01:16:35.765Z,16.03
2022-07-30T01:19:28.426Z,16.08
2022-07-30T01:22:05.966Z,16.15
2022-07-30T01:24:42.133Z,16.16
2022-07-30T01:27:11.666Z,16.09
2022-07-30T01:29:40.968Z,16.09
2022-07-30T01:32:10.927Z,16.07
2022-07-30T01:34:39.456Z,16.15
2022-07-30T01:37:09.015Z,16.25
2022-07-30T01:39:38.539Z,16.23
2022-07-30T01:42:08.523Z,16.13
2022-07-30T01:44:38.008Z,16.03
2022-07-30T01:47:06.346Z,15.93
2022-07-30T01:49:36.651Z,15.85
2022-07-30T01:52:05.092Z,15.86
2022-07-30T01:54:33.790Z,15.87
2022-07-30T01:57:01.967Z,15.79
2022-07-30T01:59:34.433Z,15.76
2022-07-30T02:02:02.419Z,15.55
2022-07-30T02:04:30.022Z,15.47
2022-07-30T02:07:22.314Z,15.69
2022-07-30T02:09:58.580Z,15.80
2022-07-30T02:12:29.744Z,15.89
2022-07-30T02:15:14.283Z,15.86
2022-07-30T02:17:56.633Z,15.81
2022-07-30T02:20:29.494Z,15.72
2022-07-30T02:23:03.291Z,15.78
2022-07-30T02:25:33.701Z,15.89
2022-07-30T02:28:10.030Z,15.93
2022-07-30T02:30:43.087Z,15.90
2022-07-30T02:33:12.724Z,15.88
2022-07-30T02:35:41.219Z,15.82
2022-07-30T02:38:11.887Z,15.81
2022-07-30T02:40:42.014Z,15.80
2022-07-30T02:43:10.018Z,15.79
2022-07-30T02:45:38.112Z,15.74
2022-07-30T02:48:07.787Z,15.70
2022-07-30T02:50:35.789Z,15.58
2022-07-30T02:53:06.834Z,15.50
2022-07-30T02:55:35.558Z,15.65
2022-07-30T02:58:05.697Z,15.47
2022-07-30T03:00:34.628Z,15.42
2022-07-30T03:03:05.707Z,15.57
2022-07-30T03:05:33.140Z,15.43
2022-07-30T03:08:01.704Z,15.36
2022-07-30T03:10:30.202Z,15.36
2022-07-30T03:12:59.778Z,15.36
2022-07-30T03:15:28.912Z,15.43
2022-07-30T03:17:57.640Z,15.44
2022-07-30T03:20:28.351Z,15.43
2022-07-30T03:22:58.378Z,15.20
2022-07-30T03:25:29.746Z,15.18
2022-07-30T03:27:59.337Z,15.18
2022-07-30T03:30:28.501Z,15.40
2022-07-30T03:32:56.579Z,15.50
2022-07-30T03:35:27.604Z,15.52
2022-07-30T03:38:00.512Z,15.52
2022-07-30T03:40:29.094Z,15.55
2022-07-30T03:42:56.464Z,15.49
2022-07-30T03:45:25.216Z,15.50
2022-07-30T03:47:57.432Z,15.47
2022-07-30T03:50:24.799Z,15.57
2022-07-30T03:52:52.705Z,15.58
2022-07-30T03:55:20.020Z,15.55
2022-07-30T03:57:49.973Z,15.49
2022-07-30T04:00:18.941Z,15.39
2022-07-30T04:02:52.136Z,15.49
2022-07-30T04:05:47.316Z,15.38
2022-07-30T04:08:14.279Z,15.40
2022-07-30T04:10:44.168Z,15.32
2022-07-30T04:13:40.461Z,15.40
2022-07-30T04:16:40.996Z,15.38
2022-07-30T04:19:03.572Z,15.37
2022-07-30T04:21:33.509Z,15.30
2022-07-30T04:24:05.202Z,15.21
2022-07-30T04:26:36.218Z,15.30
2022-07-30T04:29:07.515Z,15.28
2022-07-30T04:31:38.158Z,15.03
2022-07-30T04:34:27.230Z,14.83
2022-07-30T04:36:54.437Z,14.88
2022-07-30T04:39:21.350Z,14.77
2022-07-30T04:41:49.526Z,14.83
2022-07-30T04:44:31.647Z,15.02
2022-07-30T04:47:18.702Z,15.21
2022-07-30T04:49:58.249Z,15.21
2022-07-30T04:52:30.035Z,15.32
2022-07-30T04:55:05.398Z,15.35
2022-07-30T04:57:35.536Z,15.47
2022-07-30T05:00:02.504Z,15.66
2022-07-30T05:02:33.791Z,15.81
2022-07-30T05:05:01.675Z,15.84
2022-07-30T05:07:31.613Z,16.01
2022-07-30T05:09:59.739Z,16.14
2022-07-30T05:12:39.590Z,16.24
2022-07-30T05:15:08.093Z,16.22
2022-07-30T05:17:36.049Z,16.47
2022-07-30T05:20:06.248Z,16.64
2022-07-30T05:22:50.618Z,16.88
2022-07-30T05:25:19.298Z,17.04
2022-07-30T05:27:46.310Z,17.19
2022-07-30T05:30:13.320Z,17.40
2022-07-30T05:32:46.436Z,17.51
2022-07-30T05:35:14.196Z,17.69
2022-07-30T05:37:41.072Z,17.68
2022-07-30T05:40:08.551Z,17.56
2022-07-30T05:43:02.083Z,17.81
2022-07-30T05:45:29.160Z,17.87
2022-07-30T05:47:56.124Z,18.07
2022-07-30T05:50:23.165Z,18.27
2022-07-30T05:52:50.399Z,18.16
2022-07-30T05:55:42.785Z,18.47
2022-07-30T05:58:18.513Z,18.62
2022-07-30T06:00:46.159Z,18.58
2022-07-30T06:03:13.945Z,18.72
2022-07-30T06:06:05.167Z,18.94
2022-07-30T06:08:32.457Z,18.99
2022-07-30T06:10:59.931Z,19.12
2022-07-30T06:13:27.336Z,19.16
2022-07-30T06:15:54.245Z,19.46
2022-07-30T06:18:23.152Z,19.38
2022-07-30T06:20:54.285Z,19.62
2022-07-30T06:23:39.798Z,19.52
2022-07-30T06:26:15.386Z,19.94
2022-07-30T06:28:43.255Z,19.88
2022-07-30T06:31:17.439Z,20.03
2022-07-30T06:33:44.506Z,20.28
2022-07-30T06:36:14.101Z,20.50
2022-07-30T06:39:00.060Z,20.43
2022-07-30T06:41:49.956Z,20.61
2022-07-30T06:44:16.915Z,21.16
2022-07-30T06:47:20.689Z,21.04
2022-07-30T06:49:47.505Z,21.29
2022-07-30T06:52:18.531Z,21.41
2022-07-30T06:54:50.450Z,21.71
2022-07-30T06:57:43.455Z,21.82
2022-07-30T07:00:30.406Z,21.90
2022-07-30T07:03:01.456Z,21.82
2022-07-30T07:05:38.499Z,22.21
2022-07-30T07:08:05.594Z,22.29
2022-07-30T07:10:37.432Z,22.35
2022-07-30T07:13:20.238Z,22.57
2022-07-30T07:15:47.212Z,22.71
2022-07-30T07:18:18.876Z,22.72
2022-07-30T07:21:15.713Z,22.86
2022-07-30T07:23:43.427Z,22.72
2022-07-30T07:26:33.269Z,23.04
2022-07-30T07:29:04.969Z,23.32
2022-07-30T07:32:07.441Z,23.39
2022-07-30T07:34:20.084Z,23.46
2022-07-30T07:36:47.358Z,23.69
2022-07-30T07:39:14.998Z,23.60
2022-07-30T07:41:43.892Z,23.37
2022-07-30T07:44:19.238Z,23.60
2022-07-30T07:46:46.131Z,23.69
2022-07-30T07:49:13.470Z,23.72
2022-07-30T07:51:51.678Z,23.91
2022-07-30T07:54:22.863Z,23.60
2022-07-30T07:56:52.939Z,23.90
2022-07-30T07:59:23.671Z,24.06
2022-07-30T08:01:58.638Z,23.98
2022-07-30T08:04:48.425Z,24.11
2022-07-30T08:07:27.416Z,24.43
2022-07-30T08:10:15.082Z,24.59
2022-07-30T08:13:05.304Z,24.50
2022-07-30T08:15:34.683Z,24.50
2022-07-30T08:18:33.851Z,24.63
2022-07-30T08:21:10.760Z,25.07
2022-07-30T08:23:42.150Z,24.84
2022-07-30T08:26:09.596Z,24.93
2022-07-30T08:28:36.875Z,25.19
2022-07-30T08:31:06.472Z,25.06
2022-07-30T08:33:33.406Z,25.30
2022-07-30T08:36:04.251Z,25.38
2022-07-30T08:38:36.247Z,25.74
2022-07-30T08:41:03.105Z,25.77
2022-07-30T08:43:31.063Z,25.22
2022-07-30T08:45:59.480Z,24.97
2022-07-30T08:48:37.511Z,25.54
2022-07-30T08:51:05.235Z,25.68
2022-07-30T08:53:36.019Z,25.75
2022-07-30T08:56:04.737Z,25.82
2022-07-30T08:58:35.069Z,25.89
2022-07-30T09:01:02.556Z,25.71
2022-07-30T09:03:29.800Z,25.91
2022-07-30T09:06:02.482Z,25.48
2022-07-30T09:08:29.565Z,25.28
2022-07-30T09:10:56.582Z,25.58
2022-07-30T09:13:29.311Z,25.99
2022-07-30T09:15:58.282Z,25.62
2022-07-30T09:18:31.926Z,25.80
2022-07-30T09:21:00.954Z,26.59
2022-07-30T09:23:30.326Z,25.79
2022-07-30T09:26:17.415Z,25.29
2022-07-30T09:28:44.199Z,25.51
2022-07-30T09:31:14.511Z,25.72
2022-07-30T09:34:00.487Z,25.83
2022-07-30T09:37:04.190Z,25.11
2022-07-30T09:39:59.286Z,25.17
2022-07-30T09:43:04.321Z,25.72
2022-07-30T09:45:34.802Z,25.69
2022-07-30T09:48:03.331Z,25.93
2022-07-30T09:50:31.050Z,26.00
2022-07-30T09:53:11.997Z,25.71
2022-07-30T09:55:42.578Z,25.58
2022-07-30T09:58:12.797Z,25.72
2022-07-30T10:00:44.305Z,25.63
2022-07-30T10:03:43.920Z,25.71
2022-07-30T10:06:37.983Z,26.52
2022-07-30T10:09:37.266Z,27.20
2022-07-30T10:12:10.468Z,26.53
2022-07-30T10:14:42.712Z,26.44
2022-07-30T10:17:13.505Z,26.45
2022-07-30T10:19:45.974Z,26.79
2022-07-30T10:22:37.695Z,26.54
2022-07-30T10:25:31.002Z,26.64
2022-07-30T10:28:38.418Z,26.83
2022-07-30T10:31:47.250Z,26.48
2022-07-30T10:33:53.422Z,26.39
2022-07-30T10:36:24.414Z,26.64
2022-07-30T10:38:53.145Z,26.37
2022-07-30T10:41:48.463Z,27.16
2022-07-30T10:44:20.778Z,27.49
2022-07-30T10:47:07.289Z,27.45
2022-07-30T10:49:41.177Z,27.67
2022-07-30T10:52:10.494Z,27.06
2022-07-30T10:54:47.682Z,26.99
2022-07-30T10:57:31.876Z,27.22
2022-07-30T11:00:00.942Z,27.64
2022-07-30T11:02:30.696Z,28.27
2022-07-30T11:05:17.344Z,27.25
2022-07-30T11:07:47.345Z,26.77
2022-07-30T11:10:34.494Z,27.04
2022-07-30T11:13:01.732Z,26.77
2022-07-30T11:15:56.653Z,27.16
2022-07-30T11:18:25.572Z,27.36
2022-07-30T11:21:20.613Z,27.10
2022-07-30T11:23:53.376Z,27.48
2022-07-30T11:26:41.722Z,27.66
2022-07-30T11:29:50.606Z,27.37
2022-07-30T11:32:33.264Z,27.88
2022-07-30T11:35:18.194Z,28.09
2022-07-30T11:38:06.472Z,27.98
2022-07-30T11:40:42.179Z,27.53
2022-07-30T11:43:35.087Z,27.98
2022-07-30T11:46:29.308Z,28.41
2022-07-30T11:49:08.842Z,27.92
2022-07-30T11:51:43.597Z,27.36
2022-07-30T11:54:11.719Z,27.68
2022-07-30T11:56:49.538Z,27.31
2022-07-30T11:59:16.681Z,26.82
2022-07-30T12:01:43.645Z,27.22
2022-07-30T12:04:10.526Z,26.94
2022-07-30T12:06:45.565Z,26.70
2022-07-30T12:09:12.931Z,27.20
2022-07-30T12:11:40.018Z,26.71
2022-07-30T12:14:06.960Z,27.02
2022-07-30T12:16:34.691Z,27.18
2022-07-30T12:19:03.816Z,27.11
2022-07-30T12:21:30.943Z,26.26
2022-07-30T12:24:03.584Z,26.91
2022-07-30T12:26:32.846Z,27.35
2022-07-30T12:29:14.026Z,27.25
2022-07-30T12:31:41.876Z,28.13
2022-07-30T12:34:25.724Z,26.60
2022-07-30T12:36:52.992Z,27.06
2022-07-30T12:39:24.851Z,26.64
2022-07-30T12:41:53.748Z,26.12
2022-07-30T12:44:36.920Z,26.39
2022-07-30T12:47:06.540Z,26.76
2022-07-30T12:49:39.447Z,26.89
2022-07-30T12:52:35.820Z,27.14
2022-07-30T12:55:12.890Z,27.66
2022-07-30T12:57:52.607Z,27.47
2022-07-30T13:00:20.349Z,27.49
2022-07-30T13:02:47.673Z,28.01
2022-07-30T13:05:14.631Z,27.92
2022-07-30T13:07:59.661Z,28.51
2022-07-30T13:10:31.163Z,27.74
2022-07-30T13:12:59.603Z,27.96
2022-07-30T13:15:26.581Z,28.10
2022-07-30T13:17:53.496Z,27.85
2022-07-30T13:20:21.104Z,27.96
2022-07-30T13:22:47.969Z,28.58
2022-07-30T13:25:14.800Z,28.68
2022-07-30T13:27:41.675Z,28.63
2022-07-30T13:30:09.295Z,28.61
2022-07-30T13:32:36.148Z,28.10
2022-07-30T13:35:03.259Z,28.19
2022-07-30T13:37:37.737Z,27.60
2022-07-30T13:40:06.506Z,27.75
2022-07-30T13:42:33.495Z,27.94
2022-07-30T13:45:01.027Z,27.28
2022-07-30T13:47:27.987Z,26.87
2022-07-30T13:49:55.022Z,26.93
2022-07-30T13:52:21.846Z,27.38
2022-07-30T13:54:51.276Z,26.89
2022-07-30T13:57:18.403Z,26.96
2022-07-30T13:59:45.334Z,27.06
2022-07-30T14:02:13.156Z,27.16
2022-07-30T14:04:39.999Z,26.63
2022-07-30T14:07:06.818Z,27.25
2022-07-30T14:09:33.627Z,27.20
2022-07-30T14:12:11.710Z,27.43
2022-07-30T14:14:38.530Z,27.48
2022-07-30T14:17:05.421Z,27.44
2022-07-30T14:19:32.372Z,27.29
2022-07-30T14:21:59.185Z,27.58
2022-07-30T14:24:26.045Z,27.91
2022-07-30T14:26:57.682Z,27.49
2022-07-30T14:29:26.460Z,27.86
2022-07-30T14:31:53.959Z,27.84
2022-07-30T14:34:20.803Z,27.92
2022-07-30T14:36:47.603Z,27.93
2022-07-30T14:39:14.882Z,27.83
2022-07-30T14:41:43.082Z,28.20
2022-07-30T14:44:12.285Z,27.66
2022-07-30T14:46:52.478Z,27.35
2022-07-30T14:49:27.153Z,27.18
2022-07-30T14:51:54.424Z,27.06
2022-07-30T14:54:21.770Z,27.25
2022-07-30T14:56:49.405Z,27.66
2022-07-30T14:59:16.959Z,27.30
2022-07-30T15:01:43.923Z,26.98
2022-07-30T15:04:11.560Z,27.84
2022-07-30T15:06:40.733Z,28.53
2022-07-30T15:09:08.891Z,28.02
2022-07-30T15:12:04.347Z,27.82
2022-07-30T15:14:22.867Z,27.18
2022-07-30T15:16:51.598Z,27.16
2022-07-30T15:19:18.425Z,27.19
2022-07-30T15:21:45.270Z,27.27
2022-07-30T15:24:12.218Z,27.37
2022-07-30T15:26:39.315Z,27.57
2022-07-30T15:29:09.254Z,27.18
2022-07-30T15:31:38.553Z,26.72
2022-07-30T15:34:10.665Z,26.84
2022-07-30T15:36:39.046Z,27.10
2022-07-30T15:39:06.732Z,26.97
2022-07-30T15:41:34.061Z,26.71
2022-07-30T15:44:00.966Z,26.57
2022-07-30T15:46:27.897Z,27.13
2022-07-30T15:48:54.982Z,26.99
2022-07-30T15:51:22.265Z,26.19
2022-07-30T15:53:49.227Z,26.33
2022-07-30T15:56:16.130Z,27.11
2022-07-30T15:58:43.652Z,27.06
2022-07-30T16:01:10.788Z,26.65
2022-07-30T16:03:37.777Z,26.80
2022-07-30T16:06:04.646Z,27.52
2022-07-30T16:08:31.476Z,27.20
2022-07-30T16:10:58.551Z,27.59
2022-07-30T16:13:25.457Z,27.11
2022-07-30T16:15:52.244Z,26.61
2022-07-30T16:18:19.032Z,26.87
2022-07-30T16:20:45.901Z,27.17
2022-07-30T16:23:16.981Z,27.42
2022-07-30T16:25:46.435Z,27.30
2022-07-30T16:28:13.272Z,27.50
2022-07-30T16:30:45.987Z,26.55
2022-07-30T16:33:19.145Z,26.73
2022-07-30T16:35:49.289Z,26.93
2022-07-30T16:38:17.928Z,26.92
2022-07-30T16:40:45.400Z,26.39
2022-07-30T16:43:12.261Z,26.66
2022-07-30T16:45:39.518Z,27.09
2022-07-30T16:48:06.619Z,27.18
2022-07-30T16:50:33.483Z,26.59
2022-07-30T16:53:00.562Z,26.22
2022-07-30T16:55:27.584Z,26.13
2022-07-30T16:57:54.429Z,25.93
2022-07-30T17:00:21.367Z,25.48
2022-07-30T17:02:48.193Z,24.82
2022-07-30T17:05:15.054Z,24.65
2022-07-30T17:07:42.125Z,24.02
2022-07-30T17:10:11.006Z,24.32
2022-07-30T17:12:39.321Z,24.11
2022-07-30T17:15:07.872Z,24.00
2022-07-30T17:17:34.870Z,24.36
2022-07-30T17:20:03.798Z,24.64
2022-07-30T17:22:30.985Z,24.74
2022-07-30T17:24:57.857Z,23.90
2022-07-30T17:27:28.782Z,23.94
2022-07-30T17:29:56.125Z,23.84
2022-07-30T17:32:23.328Z,23.93
2022-07-30T17:34:50.241Z,24.08
2022-07-30T17:37:17.613Z,24.08
2022-07-30T17:40:26.317Z,24.26
2022-07-30T17:42:31.811Z,24.27
2022-07-30T17:45:01.154Z,24.21
2022-07-30T17:47:28.472Z,24.09
2022-07-30T17:49:56.113Z,23.86
2022-07-30T17:52:26.378Z,23.84
2022-07-30T17:54:53.866Z,23.73
2022-07-30T17:57:21.237Z,23.71
2022-07-30T17:59:48.081Z,23.86
2022-07-30T18:02:14.996Z,23.72
2022-07-30T18:04:41.820Z,24.24
2022-07-30T18:07:08.710Z,23.99
2022-07-30T18:09:40.163Z,23.91
2022-07-30T18:12:07.953Z,23.67
2022-07-30T18:14:34.805Z,23.67
2022-07-30T18:17:02.818Z,23.75
2022-07-30T18:19:29.908Z,23.84
2022-07-30T18:21:57.052Z,23.82
2022-07-30T18:24:24.976Z,23.68
2022-07-30T18:26:52.742Z,23.64
2022-07-30T18:29:20.939Z,23.44
2022-07-30T18:31:48.171Z,23.73
2022-07-30T18:34:15.335Z,23.70
2022-07-30T18:39:09.014Z,23.64
2022-07-30T18:41:35.928Z,23.77
2022-07-30T18:44:02.839Z,23.60
2022-07-30T18:46:29.827Z,23.57
2022-07-30T18:48:57.033Z,23.68
2022-07-30T18:51:25.290Z,23.85
2022-07-30T18:53:55.600Z,23.70
2022-07-30T18:56:22.418Z,23.85
2022-07-30T18:58:49.287Z,23.73
2022-07-30T19:01:18.343Z,23.60
2022-07-30T19:03:45.952Z,23.52
2022-07-30T19:06:12.820Z,23.54
2022-07-30T19:08:39.638Z,23.34
2022-07-30T19:11:06.437Z,23.40
2022-07-30T19:13:33.285Z,23.19
2022-07-30T19:16:00.218Z,23.25
2022-07-30T19:18:27.252Z,23.07
2022-07-30T19:20:54.117Z,23.23
2022-07-30T19:23:20.976Z,23.27
2022-07-30T19:25:47.950Z,23.26
2022-07-30T19:28:17.090Z,23.15
2022-07-30T19:30:44.028Z,23.04
2022-07-30T19:33:15.622Z,23.17
2022-07-30T19:35:43.157Z,23.05
2022-07-30T19:38:11.960Z,23.05
2022-07-30T19:40:49.251Z,23.01
2022-07-30T19:43:16.212Z,23.03
2022-07-30T19:45:47.756Z,23.09
2022-07-30T19:48:29.535Z,23.08
2022-07-30T19:51:00.725Z,22.94
2022-07-30T19:53:31.447Z,23.03
2022-07-30T19:56:04.433Z,22.96
2022-07-30T19:58:36.697Z,22.99
2022-07-30T20:01:08.398Z,22.96
2022-07-30T20:03:37.010Z,22.88
2022-07-30T20:06:07.261Z,22.90
2022-07-30T20:08:36.674Z,22.92
2022-07-30T20:11:07.357Z,22.79
2022-07-30T20:13:44.879Z,22.74
2022-07-30T20:16:15.482Z,22.86
2022-07-30T20:18:44.501Z,22.74
2022-07-30T20:21:15.620Z,22.75
2022-07-30T20:23:44.695Z,22.56
2022-07-30T20:26:14.266Z,22.64
2022-07-30T20:28:43.264Z,22.54
2022-07-30T20:31:13.052Z,22.49
2022-07-30T20:33:40.304Z,22.59
2022-07-30T20:36:09.701Z,22.37
2022-07-30T20:38:38.899Z,22.47
2022-07-30T20:41:09.808Z,22.48
2022-07-30T20:43:45.840Z,22.41
2022-07-30T20:46:18.545Z,22.30
2022-07-30T20:48:46.210Z,22.39
2022-07-30T20:51:13.226Z,22.42
2022-07-30T20:53:41.858Z,22.43
2022-07-30T20:56:13.443Z,22.39
2022-07-30T20:58:59.936Z,22.31
2022-07-30T21:01:30.737Z,22.39
2022-07-30T21:03:57.768Z,22.42
2022-07-30T21:06:26.267Z,22.42
2022-07-30T21:08:53.633Z,22.46
2022-07-30T21:11:22.535Z,22.10
2022-07-30T21:13:49.367Z,22.08
2022-07-30T21:16:16.897Z,22.13
2022-07-30T21:18:49.642Z,21.89
2022-07-30T21:21:30.591Z,21.97
2022-07-30T21:24:05.668Z,22.10
2022-07-30T21:26:32.544Z,22.12
2022-07-30T21:29:00.848Z,22.03
2022-07-30T21:31:58.070Z,22.00
2022-07-30T21:34:14.915Z,21.99
2022-07-30T21:36:43.102Z,21.92
2022-07-30T21:39:10.051Z,21.83
2022-07-30T21:41:41.176Z,21.79
2022-07-30T21:44:09.719Z,21.71
2022-07-30T21:46:38.018Z,21.65
2022-07-30T21:49:07.040Z,21.70
2022-07-30T21:51:34.724Z,21.79
2022-07-30T21:54:01.700Z,21.82
2022-07-30T21:56:34.157Z,21.78
2022-07-30T21:59:01.039Z,21.74
2022-07-30T22:01:27.855Z,21.85
2022-07-30T22:04:02.955Z,21.93
2022-07-30T22:06:35.531Z,21.76
2022-07-30T22:09:10.142Z,21.66
2022-07-30T22:14:33.268Z,21.63
2022-07-30T22:17:00.439Z,21.59
2022-07-30T22:19:27.327Z,21.64
2022-07-30T22:21:54.406Z,21.51
2022-07-30T22:24:29.576Z,21.44
2022-07-30T22:27:10.749Z,21.44
2022-07-30T22:29:43.103Z,21.22
2022-07-30T22:32:11.618Z,21.36
2022-07-30T22:34:38.533Z,21.52
2022-07-30T22:39:54.292Z,21.49
2022-07-30T22:42:24.063Z,21.63
2022-07-30T22:44:53.033Z,21.69
2022-07-30T22:47:51.070Z,21.80
2022-07-30T22:50:08.971Z,21.78
2022-07-30T22:52:40.112Z,21.82
2022-07-30T22:55:22.201Z,21.68
2022-07-30T22:57:49.441Z,21.69
2022-07-30T23:00:28.035Z,21.55
2022-07-30T23:02:56.589Z,21.59
2022-07-30T23:05:24.584Z,21.59
2022-07-30T23:07:51.783Z,21.66
2022-07-30T23:12:28.965Z,21.34
2022-07-30T23:12:31.001Z,21.64
2022-07-30T23:12:32.586Z,21.87
2022-07-30T23:15:38.218Z,21.83
2022-07-30T23:18:05.406Z,21.83
2022-07-30T23:20:32.290Z,21.68
2022-07-30T23:23:01.480Z,21.76
2022-07-30T23:25:38.491Z,21.66
2022-07-30T23:28:06.171Z,21.56
2022-07-30T23:30:34.126Z,21.64
2022-07-30T23:33:02.210Z,21.70
2022-07-30T23:35:29.080Z,21.75
2022-07-30T23:37:55.903Z,21.72
2022-07-30T23:40:23.415Z,21.77
2022-07-30T23:42:51.011Z,21.77
2022-07-30T23:45:18.433Z,21.65
2022-07-30T23:48:01.335Z,21.26
2022-07-30T23:50:32.178Z,21.45
2022-07-30T23:52:59.831Z,21.64
2022-07-30T23:55:27.230Z,21.49
2022-07-30T23:57:54.739Z,21.53
